Time,TemperatureF,DewpointF,PressureIn,WindDirection,WindDirectionDegrees,WindSpeedMPH,WindSpeedGustMPH,Humidity,HourlyPrecipIn,Conditions,Clouds,dailyrainin,SolarRadiationWatts/m^2,SoftwareType,DateUTC
2013-05-28 00:02:00,54.0,37.0,29.91,SW,230,7.0,13.0,53,-99.99,,,-99.99,-0.100000,,2013-05-28 06:02:00,
2013-05-28 00:11:00,54.0,37.0,29.91,SW,230,7.0,11.0,53,-99.99,,,-99.99,0.000000,,2013-05-28 06:11:00,
2013-05-28 00:21:00,54.0,37.0,29.92,SW,221,6.0,9.0,54,-99.99,,,-99.99,0.000000,,2013-05-28 06:21:00,
2013-05-28 00:31:00,53.0,39.0,29.91,SSW,211,8.0,10.0,58,-99.99,,,-99.99,-0.100000,,2013-05-28 06:31:00,
2013-05-28 00:41:00,52.0,39.0,29.91,SSW,213,7.0,11.0,59,-99.99,,,-99.99,-0.100000,,2013-05-28 06:41:00,
2013-05-28 00:51:00,52.0,39.0,29.90,SW,220,7.0,11.0,59,-99.99,,,-99.99,-0.100000,,2013-05-28 06:51:00,
2013-05-28 01:01:00,52.0,39.0,29.90,SSW,206,6.0,12.0,60,-99.99,,,-99.99,-0.100000,,2013-05-28 07:01:00,
2013-05-28 01:11:00,52.0,40.0,29.90,SSW,202,6.0,9.0,62,-99.99,,,-99.99,0.100000,,2013-05-28 07:11:00,
2013-05-28 01:21:00,52.0,40.0,29.90,SSW,199,7.0,11.0,63,-99.99,,,-99.99,0.000000,,2013-05-28 07:21:00,
2013-05-28 01:31:00,51.0,40.0,29.90,SSW,207,7.0,12.0,64,-99.99,,,-99.99,-0.200000,,2013-05-28 07:31:00,
2013-05-28 01:41:00,51.0,41.0,29.90,SSW,207,8.0,13.0,66,-99.99,,,-99.99,0.000000,,2013-05-28 07:41:00,
2013-05-28 01:52:00,51.0,41.0,29.90,SSW,207,7.0,13.0,69,-99.99,,,-99.99,-0.100000,,2013-05-28 07:52:00,
2013-05-28 02:01:00,51.0,41.0,29.90,SW,223,7.0,12.0,70,-99.99,,,-99.99,0.000000,,2013-05-28 08:01:00,
2013-05-28 02:11:00,50.0,42.0,29.89,SW,216,7.0,10.0,73,-99.99,,,-99.99,0.000000,,2013-05-28 08:11:00,
2013-05-28 02:21:00,50.0,42.0,29.89,SW,215,8.0,10.0,75,-99.99,,,-99.99,-0.200000,,2013-05-28 08:21:00,
2013-05-28 02:32:00,49.0,43.0,29.88,SW,218,8.0,10.0,77,-99.99,,,-99.99,-0.100000,,2013-05-28 08:32:00,
2013-05-28 02:41:00,49.0,43.0,29.88,SW,214,8.0,11.0,77,-99.99,,,-99.99,-0.100000,,2013-05-28 08:41:00,
2013-05-28 02:51:00,49.0,43.0,29.88,SSW,202,6.0,9.0,79,-99.99,,,-99.99,-0.100000,,2013-05-28 08:51:00,
2013-05-28 03:01:00,49.0,43.0,29.88,SSW,193,7.0,9.0,79,-99.99,,,-99.99,0.000000,,2013-05-28 09:01:00,
2013-05-28 03:11:00,49.0,43.0,29.87,SSW,197,7.0,9.0,78,-99.99,,,-99.99,-0.100000,,2013-05-28 09:11:00,
2013-05-28 03:21:00,49.0,43.0,29.86,South,183,7.0,9.0,78,-99.99,,,-99.99,-0.100000,,2013-05-28 09:21:00,
2013-05-28 03:33:00,49.0,43.0,29.86,SSW,195,5.0,7.0,78,-99.99,,,-99.99,0.200000,,2013-05-28 09:33:00,
2013-05-28 03:42:00,49.0,43.0,29.86,South,187,5.0,7.0,78,-99.99,,,-99.99,0.200000,,2013-05-28 09:42:00,
2013-05-28 03:53:00,48.0,42.0,29.85,South,185,4.0,5.0,78,-99.99,,,-99.99,0.000000,,2013-05-28 09:53:00,
2013-05-28 04:02:00,48.0,42.0,29.85,South,184,4.0,6.0,78,-99.99,,,-99.99,-0.100000,,2013-05-28 10:02:00,
2013-05-28 04:12:00,47.0,42.0,29.85,South,177,4.0,6.0,80,-99.99,,,-99.99,0.000000,,2013-05-28 10:12:00,
2013-05-28 04:22:00,47.0,41.0,29.85,South,180,5.0,7.0,80,-99.99,,,-99.99,0.000000,,2013-05-28 10:22:00,
2013-05-28 04:32:00,46.0,41.0,29.85,SSE,168,6.0,7.0,81,-99.99,,,-99.99,-0.100000,,2013-05-28 10:32:00,
2013-05-28 04:42:00,46.0,41.0,29.84,South,179,5.0,6.0,81,-99.99,,,-99.99,-0.200000,,2013-05-28 10:42:00,
2013-05-28 04:52:00,46.0,40.0,29.84,South,179,4.0,5.0,80,-99.99,,,-99.99,-0.100000,,2013-05-28 10:52:00,
2013-05-28 05:02:00,46.0,41.0,29.84,South,186,4.0,6.0,79,-99.99,,,-99.99,0.000000,,2013-05-28 11:02:00,
2013-05-28 05:11:00,47.0,40.0,29.84,South,180,4.0,6.0,78,-99.99,,,-99.99,-0.100000,,2013-05-28 11:11:00,
2013-05-28 05:22:00,46.0,40.0,29.83,SSE,165,4.0,5.0,79,-99.99,,,-99.99,-0.100000,,2013-05-28 11:22:00,
2013-05-28 05:32:00,42.0,37.0,29.83,SSE,158,3.0,4.0,84,-99.99,,,-99.99,-0.300000,,2013-05-28 11:32:00,
2013-05-28 05:41:00,43.0,39.0,29.83,ESE,106,3.0,4.0,84,-99.99,,,-99.99,0.000000,,2013-05-28 11:41:00,
2013-05-28 05:52:00,44.0,40.0,29.83,SE,130,6.0,8.0,84,-99.99,,,-99.99,0.000000,,2013-05-28 11:52:00,
2013-05-28 06:01:00,44.0,39.0,29.83,SSE,147,5.0,6.0,83,-99.99,,,-99.99,0.700000,,2013-05-28 12:01:00,
2013-05-28 06:11:00,44.0,39.0,29.82,SSE,149,3.0,4.0,82,-99.99,,,-99.99,2.100000,,2013-05-28 12:11:00,
2013-05-28 06:21:00,44.0,39.0,29.82,South,183,0.0,1.0,84,-99.99,,,-99.99,6.700000,,2013-05-28 12:21:00,
2013-05-28 06:31:00,43.0,39.0,29.82,NNW,329,1.0,3.0,86,-99.99,,,-99.99,15.600000,,2013-05-28 12:31:00,
2013-05-28 06:42:00,43.0,39.0,29.81,North,350,2.0,2.0,87,-99.99,,,-99.99,32.000000,,2013-05-28 12:42:00,
2013-05-28 06:52:00,44.0,39.0,29.81,SE,141,3.0,4.0,85,-99.99,,,-99.99,54.900002,,2013-05-28 12:52:00,
2013-05-28 07:01:00,45.0,40.0,29.81,SSE,164,3.0,4.0,83,-99.99,,,-99.99,87.099998,,2013-05-28 13:01:00,
2013-05-28 07:11:00,46.0,40.0,29.81,SE,140,2.0,3.0,80,-99.99,,,-99.99,97.900002,,2013-05-28 13:11:00,
2013-05-28 07:21:00,46.0,40.0,29.81,SE,137,3.0,4.0,79,-99.99,,,-99.99,84.300003,,2013-05-28 13:21:00,
2013-05-28 07:32:00,47.0,41.0,29.81,SSE,164,2.0,3.0,80,-99.99,,,-99.99,84.199997,,2013-05-28 13:32:00,
2013-05-28 07:42:00,48.0,41.0,29.81,SSE,150,2.0,2.0,77,-99.99,,,-99.99,65.699997,,2013-05-28 13:42:00,
2013-05-28 07:52:00,48.0,41.0,29.80,SW,235,0.0,1.0,78,-99.99,,,-99.99,69.599998,,2013-05-28 13:52:00,
2013-05-28 08:01:00,47.0,42.0,29.80,North,7,2.0,3.0,81,-99.99,,,-99.99,104.599998,,2013-05-28 14:01:00,
2013-05-28 08:11:00,48.0,42.0,29.80,North,0,2.0,3.0,78,-99.99,,,-99.99,173.199997,,2013-05-28 14:11:00,
2013-05-28 08:21:00,49.0,41.0,29.80,WNW,284,1.0,1.0,75,-99.99,,,-99.99,132.800003,,2013-05-28 14:21:00,
2013-05-28 08:32:00,49.0,41.0,29.80,WNW,283,1.0,2.0,73,-99.99,,,-99.99,123.900002,,2013-05-28 14:32:00,
2013-05-28 08:41:00,50.0,42.0,29.80,NW,321,4.0,5.0,73,-99.99,,,-99.99,201.899994,,2013-05-28 14:41:00,
2013-05-28 08:51:00,50.0,42.0,29.80,NW,325,4.0,5.0,73,-99.99,,,-99.99,357.100006,,2013-05-28 14:51:00,
2013-05-28 09:01:00,51.0,42.0,29.80,NW,319,4.0,6.0,71,-99.99,,,-99.99,502.000000,,2013-05-28 15:01:00,
2013-05-28 09:11:00,52.0,42.0,29.80,WNW,286,3.0,6.0,69,-99.99,,,-99.99,468.799988,,2013-05-28 15:11:00,
2013-05-28 09:21:00,52.0,43.0,29.81,West,281,4.0,8.0,69,-99.99,,,-99.99,480.899994,,2013-05-28 15:21:00,
2013-05-28 09:32:00,52.0,43.0,29.80,WNW,288,5.0,7.0,69,-99.99,,,-99.99,391.200012,,2013-05-28 15:32:00,
2013-05-28 09:42:00,52.0,42.0,29.80,West,267,4.0,6.0,68,-99.99,,,-99.99,239.000000,,2013-05-28 15:42:00,
2013-05-28 09:52:00,52.0,43.0,29.81,WSW,250,5.0,7.0,69,-99.99,,,-99.99,169.899994,,2013-05-28 15:52:00,
2013-05-28 10:03:00,52.0,42.0,29.81,WSW,248,6.0,9.0,68,-99.99,,,-99.99,163.399994,,2013-05-28 16:03:00,
2013-05-28 10:12:00,52.0,43.0,29.81,WSW,256,9.0,13.0,71,-99.99,,,-99.99,189.600006,,2013-05-28 16:12:00,
2013-05-28 10:22:00,51.0,43.0,29.82,WSW,251,7.0,11.0,74,-99.99,,,-99.99,206.500000,,2013-05-28 16:22:00,
2013-05-28 10:32:00,51.0,44.0,29.81,WSW,245,7.0,10.0,78,-99.99,,,-99.99,243.300003,,2013-05-28 16:32:00,
2013-05-28 10:42:00,50.0,45.0,29.81,WSW,255,10.0,15.0,82,-99.99,,,-99.99,184.300003,,2013-05-28 16:42:00,
2013-05-28 10:52:00,49.0,45.0,29.82,WSW,245,9.0,14.0,84,-99.99,,,-99.99,244.100006,,2013-05-28 16:52:00,
2013-05-28 11:02:00,49.0,45.0,29.82,WSW,242,9.0,14.0,84,-99.99,,,-99.99,324.700012,,2013-05-28 17:02:00,
2013-05-28 11:11:00,49.0,44.0,29.82,WSW,238,9.0,12.0,83,-99.99,,,-99.99,331.100006,,2013-05-28 17:11:00,
2013-05-28 11:22:00,50.0,45.0,29.82,WSW,254,8.0,13.0,82,-99.99,,,-99.99,358.000000,,2013-05-28 17:22:00,
2013-05-28 11:32:00,50.0,44.0,29.82,WSW,250,10.0,14.0,79,-99.99,,,-99.99,320.799988,,2013-05-28 17:32:00,
2013-05-28 11:41:00,50.0,44.0,29.82,West,264,8.0,17.0,79,-99.99,,,-99.99,353.299988,,2013-05-28 17:41:00,
2013-05-28 11:51:00,50.0,44.0,29.82,WSW,242,12.0,18.0,78,-99.99,,,-99.99,286.100006,,2013-05-28 17:51:00,
2013-05-28 12:01:00,50.0,43.0,29.82,WSW,249,11.0,17.0,76,-99.99,,,-99.99,337.299988,,2013-05-28 18:01:00,
2013-05-28 12:11:00,50.0,44.0,29.82,WSW,256,8.0,17.0,77,-99.99,,,-99.99,310.200012,,2013-05-28 18:11:00,
2013-05-28 12:21:00,51.0,43.0,29.82,WSW,238,9.0,16.0,74,-99.99,,,-99.99,263.700012,,2013-05-28 18:21:00,
2013-05-28 12:32:00,50.0,43.0,29.82,SW,235,11.0,15.0,76,-99.99,,,-99.99,194.699997,,2013-05-28 18:32:00,
2013-05-28 12:42:00,50.0,43.0,29.82,WSW,252,10.0,17.0,78,-99.99,,,-99.99,189.899994,,2013-05-28 18:42:00,
2013-05-28 12:52:00,50.0,43.0,29.82,WSW,237,9.0,15.0,76,-99.99,,,-99.99,216.000000,,2013-05-28 18:52:00,
2013-05-28 13:01:00,50.0,43.0,29.83,WSW,254,9.0,16.0,74,-99.99,,,-99.99,299.500000,,2013-05-28 19:01:00,
2013-05-28 13:11:00,50.0,43.0,29.83,WSW,238,9.0,13.0,76,-99.99,,,-99.99,247.500000,,2013-05-28 19:11:00,
2013-05-28 13:21:00,50.0,44.0,29.83,WSW,237,11.0,15.0,80,-99.99,,,-99.99,302.000000,,2013-05-28 19:21:00,
2013-05-28 13:31:00,49.0,43.0,29.83,WSW,237,11.0,16.0,76,-99.99,,,-99.99,316.700012,,2013-05-28 19:31:00,
2013-05-28 13:41:00,49.0,43.0,29.83,SW,229,11.0,18.0,79,-99.99,,,-99.99,269.899994,,2013-05-28 19:41:00,
2013-05-28 13:52:00,49.0,43.0,29.83,SW,226,11.0,16.0,79,-99.99,,,-99.99,324.899994,,2013-05-28 19:52:00,
2013-05-28 14:01:00,49.0,43.0,29.83,SW,219,12.0,17.0,78,-99.99,,,-99.99,371.600006,,2013-05-28 20:01:00,
2013-05-28 14:11:00,49.0,43.0,29.83,SW,217,10.0,15.0,78,-99.99,,,-99.99,438.100006,,2013-05-28 20:11:00,
2013-05-28 14:22:00,51.0,44.0,29.83,SW,219,7.0,10.0,79,-99.99,,,-99.99,489.799988,,2013-05-28 20:22:00,
2013-05-28 14:32:00,51.0,44.0,29.83,SW,214,11.0,16.0,76,-99.99,,,-99.99,566.200012,,2013-05-28 20:32:00,
2013-05-28 14:42:00,51.0,43.0,29.82,SW,219,11.0,15.0,74,-99.99,,,-99.99,373.200012,,2013-05-28 20:42:00,
2013-05-28 14:52:00,51.0,43.0,29.82,SSW,206,13.0,17.0,75,-99.99,,,-99.99,509.299988,,2013-05-28 20:52:00,
2013-05-28 15:01:00,51.0,44.0,29.82,SSW,210,11.0,15.0,76,-99.99,,,-99.99,802.000000,,2013-05-28 21:01:00,
2013-05-28 15:11:00,52.0,43.0,29.82,SSW,192,13.0,18.0,72,-99.99,,,-99.99,1089.000000,,2013-05-28 21:11:00,
2013-05-28 15:21:00,52.0,43.0,29.83,SSW,202,11.0,15.0,70,-99.99,,,-99.99,373.200012,,2013-05-28 21:21:00,
2013-05-28 15:33:00,52.0,42.0,29.83,SSW,209,10.0,14.0,70,-99.99,,,-99.99,459.700012,,2013-05-28 21:33:00,
2013-05-28 15:43:00,52.0,43.0,29.82,SSW,209,11.0,13.0,69,-99.99,,,-99.99,705.400024,,2013-05-28 21:43:00,
2013-05-28 15:53:00,53.0,43.0,29.82,SSW,194,11.0,15.0,68,-99.99,,,-99.99,478.399994,,2013-05-28 21:53:00,
2013-05-28 16:02:00,53.0,42.0,29.82,SSW,208,11.0,14.0,67,-99.99,,,-99.99,380.700012,,2013-05-28 22:02:00,
2013-05-28 16:12:00,52.0,42.0,29.82,SSW,211,12.0,16.0,67,-99.99,,,-99.99,219.399994,,2013-05-28 22:12:00,
2013-05-28 16:22:00,53.0,42.0,29.82,SSW,209,11.0,16.0,67,-99.99,,,-99.99,258.399994,,2013-05-28 22:22:00,
2013-05-28 16:32:00,53.0,43.0,29.82,SSW,197,9.0,13.0,68,-99.99,,,-99.99,404.399994,,2013-05-28 22:32:00,
2013-05-28 16:42:00,53.0,43.0,29.82,SSW,205,10.0,15.0,67,-99.99,,,-99.99,216.600006,,2013-05-28 22:42:00,
2013-05-28 16:52:00,53.0,42.0,29.82,SW,227,9.0,11.0,66,-99.99,,,-99.99,189.500000,,2013-05-28 22:52:00,
2013-05-28 17:02:00,53.0,42.0,29.82,WSW,244,9.0,13.0,67,-99.99,,,-99.99,158.300003,,2013-05-28 23:02:00,
2013-05-28 17:11:00,52.0,43.0,29.83,WSW,244,6.0,11.0,70,-99.99,,,-99.99,221.300003,,2013-05-28 23:11:00,
2013-05-28 17:21:00,53.0,44.0,29.82,SW,228,7.0,10.0,71,-99.99,,,-99.99,248.000000,,2013-05-28 23:21:00,
2013-05-28 17:32:00,53.0,43.0,29.82,SW,224,9.0,11.0,69,-99.99,,,-99.99,256.700012,,2013-05-28 23:32:00,
2013-05-28 17:41:00,53.0,43.0,29.82,SW,230,8.0,10.0,69,-99.99,,,-99.99,396.000000,,2013-05-28 23:41:00,
2013-05-28 17:52:00,53.0,44.0,29.83,SSW,198,9.0,13.0,70,-99.99,,,-99.99,165.000000,,2013-05-28 23:52:00,
2013-05-28 18:01:00,53.0,44.0,29.83,SW,233,8.0,17.0,72,-99.99,,,-99.99,193.199997,,2013-05-29 00:01:00,
2013-05-28 18:11:00,52.0,45.0,29.83,WSW,249,7.0,12.0,75,-99.99,,,-99.99,134.100006,,2013-05-29 00:11:00,
2013-05-28 18:21:00,52.0,45.0,29.83,South,188,11.0,13.0,78,-99.99,,,-99.99,162.100006,,2013-05-29 00:21:00,
2013-05-28 18:32:00,51.0,46.0,29.83,South,183,9.0,13.0,82,-99.99,,,-99.99,107.300003,,2013-05-29 00:32:00,
2013-05-28 18:41:00,51.0,46.0,29.83,South,186,9.0,13.0,85,-99.99,,,-99.99,47.799999,,2013-05-29 00:41:00,
2013-05-28 18:51:00,50.0,46.0,29.83,SSE,163,5.0,7.0,86,-99.99,,,-99.99,43.299999,,2013-05-29 00:51:00,
2013-05-28 19:01:00,51.0,47.0,29.83,SE,141,5.0,10.0,87,-99.99,,,-99.99,146.100006,,2013-05-29 01:01:00,
2013-05-28 19:11:00,52.0,48.0,29.82,SW,229,8.0,13.0,85,-99.99,,,-99.99,343.200012,,2013-05-29 01:11:00,
2013-05-28 19:21:00,53.0,47.0,29.82,SW,217,10.0,15.0,77,-99.99,,,-99.99,425.799988,,2013-05-29 01:21:00,
2013-05-28 19:32:00,53.0,46.0,29.82,SW,214,12.0,17.0,77,-99.99,,,-99.99,316.299988,,2013-05-29 01:32:00,
2013-05-28 19:41:00,53.0,46.0,29.82,SSW,213,9.0,13.0,77,-99.99,,,-99.99,290.600006,,2013-05-29 01:41:00,
2013-05-28 19:52:00,53.0,46.0,29.82,SSW,206,8.0,13.0,76,-99.99,,,-99.99,150.600006,,2013-05-29 01:52:00,
2013-05-28 20:02:00,53.0,46.0,29.82,SSW,210,6.0,10.0,76,-99.99,,,-99.99,90.900002,,2013-05-29 02:02:00,
2013-05-28 20:11:00,53.0,46.0,29.82,SSW,201,7.0,10.0,77,-99.99,,,-99.99,77.099998,,2013-05-29 02:11:00,
2013-05-28 20:21:00,53.0,46.0,29.82,SSW,210,7.0,10.0,78,-99.99,,,-99.99,56.599998,,2013-05-29 02:21:00,
2013-05-28 20:31:00,52.0,46.0,29.83,SSW,211,7.0,10.0,78,-99.99,,,-99.99,32.400002,,2013-05-29 02:31:00,
2013-05-28 20:41:00,52.0,46.0,29.83,SSW,213,6.0,10.0,79,-99.99,,,-99.99,26.200001,,2013-05-29 02:41:00,
2013-05-28 20:51:00,52.0,46.0,29.83,SSW,204,7.0,10.0,79,-99.99,,,-99.99,15.300000,,2013-05-29 02:51:00,
2013-05-28 21:01:00,52.0,46.0,29.83,SSW,201,6.0,8.0,80,-99.99,,,-99.99,6.400000,,2013-05-29 03:01:00,
2013-05-28 21:11:00,52.0,46.0,29.83,SSW,202,5.0,8.0,81,-99.99,,,-99.99,3.000000,,2013-05-29 03:11:00,
2013-05-28 21:21:00,52.0,46.0,29.83,SSW,210,8.0,11.0,79,-99.99,,,-99.99,1.100000,,2013-05-29 03:21:00,
2013-05-28 21:33:00,52.0,46.0,29.83,SW,220,6.0,10.0,78,-99.99,,,-99.99,0.600000,,2013-05-29 03:33:00,
2013-05-28 21:43:00,52.0,46.0,29.84,WSW,256,4.0,7.0,79,-99.99,,,-99.99,0.200000,,2013-05-29 03:43:00,
2013-05-28 21:53:00,52.0,43.0,29.84,WNW,290,3.0,5.0,73,-99.99,,,-99.99,0.000000,,2013-05-29 03:53:00,
2013-05-28 22:02:00,52.0,43.0,29.84,WSW,257,3.0,5.0,71,-99.99,,,-99.99,0.100000,,2013-05-29 04:02:00,
2013-05-28 22:12:00,51.0,43.0,29.84,WNW,301,3.0,4.0,71,-99.99,,,-99.99,0.000000,,2013-05-29 04:12:00,
2013-05-28 22:22:00,51.0,43.0,29.84,WNW,292,2.0,2.0,73,-99.99,,,-99.99,-0.100000,,2013-05-29 04:22:00,
2013-05-28 22:33:00,51.0,43.0,29.85,WNW,295,3.0,3.0,74,-99.99,,,-99.99,-0.100000,,2013-05-29 04:33:00,
2013-05-28 22:52:00,50.0,43.0,29.85,NW,314,2.0,3.0,76,-99.99,,,-99.99,0.000000,,2013-05-29 04:52:00,
2013-05-28 23:02:00,49.0,44.0,29.85,SSE,154,4.0,5.0,84,-99.99,,,-99.99,-0.200000,,2013-05-29 05:02:00,
2013-05-28 23:11:00,49.0,45.0,29.85,SSE,161,2.0,2.0,83,-99.99,,,-99.99,0.000000,,2013-05-29 05:11:00,
2013-05-28 23:21:00,48.0,45.0,29.85,SSW,211,1.0,2.0,88,-99.99,,,-99.99,0.000000,,2013-05-29 05:21:00,
2013-05-28 23:32:00,48.0,44.0,29.85,SSE,168,2.0,2.0,86,-99.99,,,-99.99,-0.100000,,2013-05-29 05:32:00,
2013-05-28 23:41:00,47.0,44.0,29.85,SSW,198,3.0,4.0,89,-99.99,,,-99.99,-0.200000,,2013-05-29 05:41:00,
2013-05-28 23:52:00,47.0,44.0,29.85,West,269,2.0,3.0,90,-99.99,,,-99.99,-0.100000,,2013-05-29 05:52:00,